createdAt,value
2024-02-26T00:00:10.164Z,5.75
2024-02-26T00:02:56.801Z,6.82
2024-02-26T00:05:43.295Z,6.22
2024-02-26T00:08:31.904Z,6.78
2024-02-26T00:11:18.152Z,7.15
2024-02-26T00:14:04.624Z,4.95
2024-02-26T00:16:51.042Z,5.35
2024-02-26T00:19:37.734Z,5.80
2024-02-26T00:22:24.058Z,5.35
2024-02-26T00:25:13.473Z,4.70
2024-02-26T00:27:59.866Z,5.82
2024-02-26T00:30:45.793Z,5.00
2024-02-26T00:33:32.255Z,5.47
2024-02-26T00:36:19.844Z,6.20
2024-02-26T00:39:05.988Z,4.13
2024-02-26T00:41:53.556Z,6.70
2024-02-26T00:44:39.921Z,4.80
2024-02-26T00:47:26.416Z,4.85
2024-02-26T00:50:12.659Z,6.22
2024-02-26T00:52:58.703Z,4.60
2024-02-26T00:55:44.778Z,5.97
2024-02-26T00:58:32.289Z,7.13
2024-02-26T01:01:18.678Z,7.20
2024-02-26T01:04:05.414Z,5.63
2024-02-26T01:06:51.649Z,7.47
2024-02-26T01:09:37.607Z,6.07
2024-02-26T01:12:23.641Z,7.00
2024-02-26T01:15:11.719Z,6.05
2024-02-26T01:17:58.317Z,5.70
2024-02-26T01:20:44.336Z,5.40
2024-02-26T01:23:30.583Z,8.02
2024-02-26T01:26:16.691Z,5.57
2024-02-26T01:29:02.664Z,5.40
2024-02-26T01:31:50.122Z,5.70
2024-02-26T01:34:38.080Z,4.70
2024-02-26T01:37:24.773Z,5.43
2024-02-26T01:40:12.247Z,4.72
2024-02-26T01:42:58.421Z,5.43
2024-02-26T01:45:44.741Z,4.93
2024-02-26T01:48:32.563Z,4.57
2024-02-26T01:51:19.696Z,5.40
2024-02-26T01:54:05.962Z,4.65
2024-02-26T01:56:52.676Z,6.40
2024-02-26T01:59:39.097Z,4.35
2024-02-26T02:02:25.255Z,3.67
2024-02-26T02:05:14.019Z,5.18
2024-02-26T02:08:00.936Z,5.13
2024-02-26T02:10:48.820Z,6.03
2024-02-26T02:13:34.940Z,3.67
2024-02-26T02:16:20.981Z,4.18
2024-02-26T02:19:07.220Z,6.63
2024-02-26T02:21:54.377Z,4.22
2024-02-26T02:24:40.506Z,4.57
2024-02-26T02:27:27.303Z,5.63
2024-02-26T02:30:14.183Z,4.65
2024-02-26T02:33:00.520Z,3.65
2024-02-26T02:35:47.816Z,3.88
2024-02-26T02:38:35.998Z,3.47
2024-02-26T02:41:22.829Z,2.97
2024-02-26T02:44:09.035Z,4.47
2024-02-26T02:46:55.135Z,6.00
2024-02-26T02:49:41.654Z,4.70
2024-02-26T02:52:27.744Z,3.83
2024-02-26T02:55:15.543Z,3.53
2024-02-26T02:58:01.934Z,4.07
2024-02-26T03:00:48.209Z,6.30
2024-02-26T03:03:34.395Z,3.80
2024-02-26T03:06:22.179Z,5.47
2024-02-26T03:09:08.491Z,2.97
2024-02-26T03:11:55.920Z,4.28
2024-02-26T03:14:42.489Z,3.50
2024-02-26T03:17:28.748Z,4.95
2024-02-26T03:20:14.807Z,3.05
2024-02-26T03:23:00.993Z,3.75
2024-02-26T03:25:48.903Z,4.80
2024-02-26T03:28:36.159Z,3.45
2024-02-26T03:31:22.728Z,5.03
2024-02-26T03:34:08.989Z,2.97
2024-02-26T03:36:54.853Z,4.13
2024-02-26T03:39:40.988Z,3.67
2024-02-26T03:42:27.111Z,4.18
2024-02-26T03:45:14.396Z,6.15
2024-02-26T03:48:01.287Z,3.33
2024-02-26T03:50:47.709Z,5.90
2024-02-26T03:53:33.794Z,5.47
2024-02-26T03:56:19.754Z,5.10
2024-02-26T03:59:05.928Z,5.38
2024-02-26T04:01:53.429Z,4.95
2024-02-26T04:04:39.655Z,3.33
2024-02-26T04:07:25.770Z,4.33
2024-02-26T04:10:11.999Z,3.77
2024-02-26T04:12:58.139Z,3.75
2024-02-26T04:15:44.103Z,3.00
2024-02-26T04:18:31.662Z,3.85
2024-02-26T04:21:17.885Z,4.78
2024-02-26T04:24:04.131Z,3.10
2024-02-26T04:26:50.942Z,3.13
2024-02-26T04:29:36.881Z,4.57
2024-02-26T04:32:22.866Z,3.13
2024-02-26T04:35:11.377Z,5.57
2024-02-26T04:37:57.791Z,3.03
2024-02-26T04:40:43.717Z,4.63
2024-02-26T04:43:29.813Z,4.80
2024-02-26T04:46:15.967Z,4.17
2024-02-26T04:49:02.521Z,3.50
2024-02-26T04:51:50.252Z,4.40
2024-02-26T04:54:36.784Z,4.47
2024-02-26T04:57:23.400Z,5.33
2024-02-26T05:00:10.808Z,3.80
2024-02-26T05:02:56.987Z,4.47
2024-02-26T05:05:42.991Z,4.50
2024-02-26T05:08:31.781Z,3.93
2024-02-26T05:11:19.402Z,3.77
2024-02-26T05:14:05.436Z,3.63
2024-02-26T05:16:51.455Z,2.77
2024-02-26T05:19:37.846Z,3.67
2024-02-26T05:22:23.834Z,6.23
2024-02-26T05:25:11.238Z,3.70
2024-02-26T05:27:57.228Z,4.33
2024-02-26T05:30:43.469Z,5.47
2024-02-26T05:33:29.562Z,4.80
2024-02-26T05:36:20.482Z,3.47
2024-02-26T05:39:06.658Z,4.93
2024-02-26T05:41:53.922Z,4.97
2024-02-26T05:44:40.212Z,4.70
2024-02-26T05:47:26.476Z,4.37
2024-02-26T05:50:13.608Z,5.67
2024-02-26T05:52:59.882Z,4.43
2024-02-26T05:55:46.074Z,5.07
2024-02-26T05:58:33.389Z,4.93
2024-02-26T06:01:19.845Z,6.18
2024-02-26T06:04:06.158Z,4.65
2024-02-26T06:06:52.352Z,4.60
2024-02-26T06:09:38.767Z,6.57
2024-02-26T06:12:24.946Z,3.93
2024-02-26T06:15:13.189Z,3.63
2024-02-26T06:17:59.723Z,3.72
2024-02-26T06:20:47.333Z,3.35
2024-02-26T06:23:33.601Z,5.73
2024-02-26T06:26:19.922Z,4.50
2024-02-26T06:29:06.049Z,4.50
2024-02-26T06:31:53.430Z,3.72
2024-02-26T06:34:42.001Z,5.23
2024-02-26T06:37:27.987Z,5.23
2024-02-26T06:40:14.670Z,5.17
2024-02-26T06:43:00.865Z,4.38
2024-02-26T06:45:46.972Z,3.70
2024-02-26T06:48:34.464Z,3.33
2024-02-26T06:51:20.745Z,4.57
2024-02-26T06:54:07.083Z,7.97
2024-02-26T06:56:53.467Z,4.67
2024-02-26T06:59:41.385Z,5.97
2024-02-26T07:02:27.570Z,6.27
2024-02-26T07:05:14.820Z,3.93
2024-02-26T07:08:01.017Z,5.78
2024-02-26T07:10:47.501Z,5.37
2024-02-26T07:13:33.630Z,10.77
2024-02-26T07:16:19.701Z,5.43
2024-02-26T07:19:06.220Z,5.25
2024-02-26T07:21:53.767Z,4.00
2024-02-26T07:24:40.048Z,5.63
2024-02-26T07:27:26.602Z,4.43
2024-02-26T07:30:13.775Z,4.97
2024-02-26T07:33:00.083Z,4.70
2024-02-26T07:35:46.339Z,8.45
2024-02-26T07:38:42.241Z,6.72
2024-02-26T07:41:30.106Z,6.88
2024-02-26T07:44:16.142Z,6.63
2024-02-26T07:47:02.381Z,5.30
2024-02-26T07:49:48.473Z,6.40
2024-02-26T07:52:34.574Z,6.50
2024-02-26T07:55:23.218Z,6.15
2024-02-26T07:58:09.961Z,7.53
2024-02-26T08:00:56.357Z,5.40
2024-02-26T08:03:42.789Z,6.53
2024-02-26T08:06:29.238Z,8.38
2024-02-26T08:09:15.301Z,6.95
2024-02-26T08:12:02.796Z,5.90
2024-02-26T08:14:49.033Z,6.28
2024-02-26T08:17:35.307Z,5.78
2024-02-26T08:20:21.272Z,7.15
2024-02-26T08:23:07.274Z,5.45
2024-02-26T08:25:53.266Z,5.72
2024-02-26T08:28:40.747Z,6.75
2024-02-26T08:31:26.812Z,7.75
2024-02-26T08:34:12.985Z,7.97
2024-02-26T08:36:59.300Z,4.03
2024-02-26T08:39:46.929Z,4.07
2024-02-26T08:42:33.113Z,7.07
2024-02-26T08:45:20.693Z,5.50
2024-02-26T08:48:07.661Z,5.30
2024-02-26T08:50:53.703Z,5.22
2024-02-26T08:53:43.238Z,3.67
2024-02-26T08:56:30.272Z,6.53
2024-02-26T08:59:17.428Z,4.05
2024-02-26T09:02:05.161Z,5.05
2024-02-26T09:04:52.382Z,2.75
2024-02-26T09:07:38.309Z,5.20
2024-02-26T09:10:24.353Z,3.03
2024-02-26T09:13:10.722Z,4.13
2024-02-26T09:15:56.793Z,3.38
2024-02-26T09:18:44.435Z,3.15
2024-02-26T09:21:31.800Z,8.18
2024-02-26T09:24:18.339Z,3.97
2024-02-26T09:27:04.755Z,4.68
2024-02-26T09:29:51.122Z,4.78
2024-02-26T09:32:37.406Z,2.97
2024-02-26T09:35:25.192Z,3.42
2024-02-26T09:38:11.610Z,3.83
2024-02-26T09:40:58.533Z,1.88
2024-02-26T09:43:47.109Z,3.55
2024-02-26T09:46:33.659Z,4.15
2024-02-26T09:49:22.065Z,2.22
2024-02-26T09:52:10.851Z,4.70
2024-02-26T09:54:57.179Z,3.38
2024-02-26T09:57:47.724Z,2.88
2024-02-26T10:00:35.017Z,3.88
2024-02-26T10:03:23.693Z,5.50
2024-02-26T10:06:10.199Z,3.38
2024-02-26T10:08:59.752Z,3.05
2024-02-26T10:11:46.172Z,3.80
2024-02-26T10:14:32.211Z,4.07
2024-02-26T10:17:18.645Z,2.53
2024-02-26T10:20:16.793Z,2.80
2024-02-26T10:23:04.856Z,4.47
2024-02-26T10:25:56.052Z,3.65
2024-02-26T10:28:44.748Z,3.90
2024-02-26T10:31:31.077Z,3.13
2024-02-26T10:34:17.868Z,3.67
2024-02-26T10:37:04.832Z,3.60
2024-02-26T10:39:51.384Z,4.25
2024-02-26T10:42:39.222Z,4.78
2024-02-26T10:45:25.249Z,3.50
2024-02-26T10:48:12.990Z,3.00
2024-02-26T10:50:59.597Z,3.92
2024-02-26T10:53:47.770Z,4.30
2024-02-26T10:56:36.643Z,3.88
2024-02-26T10:59:24.908Z,5.97
2024-02-26T11:02:12.491Z,5.07
2024-02-26T11:05:00.601Z,4.60
2024-02-26T11:07:48.091Z,5.70
2024-02-26T11:10:34.882Z,5.22
2024-02-26T11:13:23.128Z,4.95
2024-02-26T11:16:11.201Z,5.70
2024-02-26T11:19:00.191Z,5.55
2024-02-26T11:21:46.984Z,5.55
2024-02-26T11:24:34.117Z,5.88
2024-02-26T11:27:23.796Z,4.15
2024-02-26T11:30:12.811Z,3.72
2024-02-26T11:33:00.668Z,2.83
2024-02-26T11:35:47.710Z,3.95
2024-02-26T11:38:35.267Z,4.32
2024-02-26T11:41:22.070Z,4.05
2024-02-26T11:44:08.554Z,9.68
2024-02-26T11:46:54.857Z,3.70
2024-02-26T11:49:42.725Z,4.65
2024-02-26T11:52:28.925Z,4.57
2024-02-26T11:55:34.008Z,4.53
2024-02-26T11:58:20.316Z,5.20
2024-02-26T12:01:06.492Z,4.72
2024-02-26T12:03:53.057Z,8.10
2024-02-26T12:06:52.186Z,4.88
2024-02-26T12:09:39.918Z,4.25
2024-02-26T12:12:27.870Z,3.47
2024-02-26T12:15:18.513Z,8.80
2024-02-26T12:18:06.434Z,5.70
2024-02-26T12:21:00.686Z,4.82
2024-02-26T12:23:48.631Z,5.38
2024-02-26T12:26:34.730Z,4.35
2024-02-26T12:29:21.128Z,3.63
2024-02-26T12:32:08.594Z,4.18
2024-02-26T12:34:55.025Z,4.53
2024-02-26T12:37:44.219Z,3.20
2024-02-26T12:40:32.961Z,3.20
2024-02-26T12:43:19.244Z,5.68
2024-02-26T12:46:05.577Z,4.93
2024-02-26T12:48:52.117Z,5.28
2024-02-26T12:51:39.112Z,5.20
2024-02-26T12:54:25.307Z,8.20
2024-02-26T12:57:13.590Z,5.00
2024-02-26T13:00:01.114Z,4.15
2024-02-26T13:02:48.031Z,3.80
2024-02-26T13:05:35.361Z,3.58
2024-02-26T13:08:22.373Z,4.97
2024-02-26T13:11:09.154Z,8.35
2024-02-26T13:13:56.815Z,4.38
2024-02-26T13:16:43.036Z,4.00
2024-02-26T13:19:29.767Z,4.78
2024-02-26T13:22:15.815Z,5.15
2024-02-26T13:25:04.088Z,5.10
2024-02-26T13:27:50.158Z,5.68
2024-02-26T13:30:37.864Z,6.13
2024-02-26T13:33:24.378Z,3.65
2024-02-26T13:36:12.991Z,3.97
2024-02-26T13:38:59.143Z,5.05
2024-02-26T13:41:45.577Z,4.45
2024-02-26T13:44:32.602Z,4.25
2024-02-26T13:47:19.934Z,3.28
2024-02-26T13:50:07.017Z,4.15
2024-02-26T13:52:55.154Z,6.65
2024-02-26T13:55:43.637Z,4.22
2024-02-26T13:58:30.706Z,4.90
2024-02-26T14:01:17.075Z,4.05
2024-02-26T14:04:05.782Z,4.45
2024-02-26T14:06:52.455Z,3.33
2024-02-26T14:09:46.459Z,5.57
2024-02-26T14:12:36.206Z,3.50
2024-02-26T14:15:22.121Z,3.90
2024-02-26T14:18:10.861Z,5.75
2024-02-26T14:20:58.414Z,5.00
2024-02-26T14:23:45.587Z,2.65
2024-02-26T14:26:31.795Z,3.80
2024-02-26T14:29:18.248Z,4.57
2024-02-26T14:32:05.615Z,3.35
2024-02-26T14:34:51.968Z,3.08
2024-02-26T14:37:39.735Z,4.05
2024-02-26T14:40:26.115Z,3.60
2024-02-26T14:43:12.597Z,6.10
2024-02-26T14:45:59.536Z,3.00
2024-02-26T14:48:46.195Z,3.53
2024-02-26T14:51:32.386Z,4.40
2024-02-26T14:54:20.190Z,3.08
2024-02-26T14:57:07.502Z,4.30
2024-02-26T14:59:53.475Z,3.13
2024-02-26T15:02:39.494Z,3.47
2024-02-26T15:05:25.655Z,4.38
2024-02-26T15:08:16.043Z,8.60
2024-02-26T15:11:04.368Z,5.32
2024-02-26T15:13:50.640Z,5.65
2024-02-26T15:16:36.622Z,2.83
2024-02-26T15:19:23.060Z,3.58
2024-02-26T15:22:09.126Z,3.78
2024-02-26T15:24:55.305Z,5.40
2024-02-26T15:27:43.329Z,2.72
2024-02-26T15:30:30.642Z,3.03
2024-02-26T15:33:16.964Z,4.93
2024-02-26T15:36:03.416Z,2.53
2024-02-26T15:38:49.618Z,4.82
2024-02-26T15:41:35.539Z,4.47
2024-02-26T15:44:23.442Z,5.20
2024-02-26T15:47:09.846Z,5.30
2024-02-26T15:49:56.207Z,7.75
2024-02-26T15:52:42.446Z,5.40
2024-02-26T15:55:28.520Z,5.72
2024-02-26T15:58:14.771Z,5.40
2024-02-26T16:01:09.780Z,4.65
2024-02-26T16:04:01.685Z,4.75
2024-02-26T16:06:50.918Z,4.03
2024-02-26T16:09:37.008Z,4.90
2024-02-26T16:12:38.291Z,4.97
2024-02-26T16:15:24.349Z,3.58
2024-02-26T16:18:11.747Z,5.70
2024-02-26T16:20:58.408Z,3.78
2024-02-26T16:23:44.892Z,4.55
2024-02-26T16:26:30.980Z,3.63
2024-02-26T16:29:17.767Z,4.43
2024-02-26T16:32:04.610Z,3.90
2024-02-26T16:34:52.039Z,3.42
2024-02-26T16:37:38.045Z,4.90
2024-02-26T16:40:24.352Z,4.00
2024-02-26T16:43:10.724Z,4.60
2024-02-26T16:45:56.692Z,4.78
2024-02-26T16:48:42.777Z,2.67
2024-02-26T16:51:30.496Z,5.57
2024-02-26T16:54:16.537Z,3.85
2024-02-26T16:57:03.111Z,3.65
2024-02-26T16:59:49.337Z,1.98
2024-02-26T17:02:35.289Z,3.38
2024-02-26T17:05:21.696Z,3.72
2024-02-26T17:08:11.387Z,3.65
2024-02-26T17:10:57.536Z,4.05
2024-02-26T17:13:43.832Z,3.72
2024-02-26T17:16:29.798Z,2.10
2024-02-26T17:19:16.005Z,2.42
2024-02-26T17:22:02.209Z,1.98
2024-02-26T17:24:49.694Z,1.75
2024-02-26T17:27:36.277Z,2.63
2024-02-26T17:30:22.585Z,4.00
2024-02-26T17:33:08.730Z,2.55
2024-02-26T17:35:55.203Z,3.85
2024-02-26T17:38:41.515Z,2.20
2024-02-26T17:41:29.064Z,3.80
2024-02-26T17:44:15.466Z,4.13
2024-02-26T17:47:01.934Z,4.13
2024-02-26T17:49:47.993Z,3.08
2024-02-26T17:52:37.543Z,4.03
2024-02-26T17:55:24.199Z,2.05
2024-02-26T17:58:12.022Z,2.10
2024-02-26T18:00:58.256Z,2.47
2024-02-26T18:03:44.516Z,4.38
2024-02-26T18:06:31.153Z,2.90
2024-02-26T18:09:18.513Z,2.05
2024-02-26T18:12:04.900Z,3.17
2024-02-26T18:14:52.506Z,3.95
2024-02-26T18:17:39.669Z,2.58
2024-02-26T18:20:25.606Z,2.53
2024-02-26T18:23:11.835Z,3.40
2024-02-26T18:25:57.842Z,2.38
2024-02-26T18:28:43.844Z,3.88
2024-02-26T18:31:31.482Z,3.40
2024-02-26T18:34:17.830Z,6.10
2024-02-26T18:37:04.451Z,3.08
2024-02-26T18:39:53.785Z,3.60
2024-02-26T18:42:40.679Z,7.07
2024-02-26T18:45:26.907Z,2.92
2024-02-26T18:48:14.052Z,2.22
2024-02-26T18:51:00.376Z,6.50
2024-02-26T18:53:46.727Z,4.10
2024-02-26T18:56:32.896Z,5.22
2024-02-26T18:59:19.445Z,3.60
2024-02-26T19:02:06.310Z,4.03
2024-02-26T19:04:53.726Z,2.83
2024-02-26T19:07:40.019Z,3.60
2024-02-26T19:10:26.315Z,4.20
2024-02-26T19:13:12.762Z,3.67
2024-02-26T19:15:58.823Z,3.95
2024-02-26T19:18:44.907Z,3.13
2024-02-26T19:21:32.740Z,2.80
2024-02-26T19:24:19.110Z,3.55
2024-02-26T19:27:05.542Z,2.63
2024-02-26T19:29:52.057Z,4.70
2024-02-26T19:32:37.926Z,3.30
2024-02-26T19:35:24.077Z,4.53
2024-02-26T19:38:11.739Z,2.55
2024-02-26T19:40:58.130Z,3.05
2024-02-26T19:43:44.654Z,4.18
2024-02-26T19:46:30.539Z,4.18
2024-02-26T19:49:16.757Z,4.30
2024-02-26T19:52:03.060Z,4.78
2024-02-26T19:54:50.385Z,4.25
2024-02-26T19:57:36.612Z,7.10
2024-02-26T20:00:22.545Z,5.00
2024-02-26T20:03:08.776Z,4.07
2024-02-26T20:05:55.251Z,4.80
2024-02-26T20:08:41.556Z,6.10
2024-02-26T20:11:28.997Z,4.57
2024-02-26T20:14:15.914Z,5.45
2024-02-26T20:17:02.026Z,5.82
2024-02-26T20:19:48.439Z,5.70
2024-02-26T20:22:36.685Z,6.38
2024-02-26T20:25:23.727Z,6.60
2024-02-26T20:28:11.352Z,7.72
2024-02-26T20:30:57.771Z,5.72
2024-02-26T20:33:44.521Z,7.13
2024-02-26T20:36:30.870Z,8.07
2024-02-26T20:39:17.166Z,7.80
2024-02-26T20:42:03.780Z,8.55
2024-02-26T20:44:52.850Z,6.75
2024-02-26T20:47:39.215Z,6.20
2024-02-26T20:50:25.175Z,7.60
2024-02-26T20:53:13.989Z,11.85
2024-02-26T20:56:00.197Z,11.75
2024-02-26T20:58:46.405Z,8.80
2024-02-26T21:01:34.935Z,9.02
2024-02-26T21:04:24.429Z,10.35
2024-02-26T21:07:11.305Z,9.00
2024-02-26T21:09:57.221Z,9.07
2024-02-26T21:12:43.323Z,11.52
2024-02-26T21:15:30.250Z,12.18
2024-02-26T21:18:20.988Z,9.65
2024-02-26T21:21:07.199Z,10.02
2024-02-26T21:23:53.504Z,9.02
2024-02-26T21:26:39.546Z,10.68
2024-02-26T21:29:25.608Z,10.18
2024-02-26T21:32:11.854Z,9.80
2024-02-26T21:34:59.512Z,8.32
2024-02-26T21:37:46.343Z,10.20
2024-02-26T21:40:32.684Z,8.70
2024-02-26T21:43:18.830Z,11.75
2024-02-26T21:46:06.140Z,12.05
2024-02-26T21:48:52.473Z,12.45
2024-02-26T21:51:45.866Z,14.15
2024-02-26T21:54:34.455Z,10.88
2024-02-26T21:57:21.826Z,10.75
2024-02-26T22:00:09.211Z,12.32
2024-02-26T22:02:55.455Z,12.15
2024-02-26T22:05:42.433Z,11.73
2024-02-26T22:08:30.134Z,11.55
2024-02-26T22:11:16.610Z,11.73
2024-02-26T22:14:03.897Z,10.82
2024-02-26T22:16:50.108Z,10.30
2024-02-26T22:19:36.256Z,13.23
2024-02-26T22:22:22.698Z,12.23
2024-02-26T22:25:10.554Z,13.40
2024-02-26T22:27:56.765Z,12.85
2024-02-26T22:30:45.494Z,11.45
2024-02-26T22:33:31.762Z,15.18
2024-02-26T22:36:18.364Z,11.68
2024-02-26T22:39:05.604Z,13.40
2024-02-26T22:41:53.135Z,12.70
2024-02-26T22:44:39.731Z,12.68
2024-02-26T22:47:26.179Z,14.02
2024-02-26T22:50:12.272Z,9.50
2024-02-26T22:52:58.292Z,12.55
2024-02-26T22:55:48.735Z,12.88
2024-02-26T22:58:36.247Z,10.98
2024-02-26T23:01:24.225Z,14.20
2024-02-26T23:04:10.445Z,12.60
2024-02-26T23:06:56.702Z,11.07
2024-02-26T23:09:43.151Z,13.07
2024-02-26T23:12:29.355Z,11.00
2024-02-26T23:15:16.910Z,11.82
2024-02-26T23:18:03.139Z,10.20
2024-02-26T23:20:49.213Z,11.73
2024-02-26T23:23:35.155Z,11.52
2024-02-26T23:26:21.290Z,12.57
2024-02-26T23:29:07.421Z,15.27
2024-02-26T23:31:55.667Z,10.90
2024-02-26T23:34:41.844Z,13.15
2024-02-26T23:37:28.348Z,10.88
2024-02-26T23:40:14.780Z,12.38
2024-02-26T23:43:01.312Z,13.27
2024-02-26T23:45:48.487Z,12.50
2024-02-26T23:48:35.831Z,13.38
2024-02-26T23:51:22.430Z,14.23
2024-02-26T23:54:08.892Z,11.32
2024-02-26T23:56:55.078Z,15.18
2024-02-26T23:59:41.460Z,8.90
